createdAt,value
2018-09-24T00:02:01.950Z,1.30
2018-09-24T00:04:29.836Z,1.10
2018-09-24T00:06:57.377Z,1.00
2018-09-24T00:09:24.978Z,1.20
2018-09-24T00:11:52.543Z,0.97
2018-09-24T00:14:20.117Z,1.53
2018-09-24T00:16:47.689Z,1.30
2018-09-24T00:19:24.773Z,1.30
2018-09-24T00:22:09.354Z,1.30
2018-09-24T00:24:37.265Z,1.43
2018-09-24T00:27:04.837Z,1.60
2018-09-24T00:29:32.385Z,1.30
2018-09-24T00:32:00.317Z,1.60
2018-09-24T00:34:27.854Z,1.70
2018-09-24T00:36:55.389Z,1.73
2018-09-24T00:39:23.112Z,1.70
2018-09-24T00:41:50.710Z,1.87
2018-09-24T00:44:18.261Z,1.93
2018-09-24T00:46:46.036Z,2.00
2018-09-24T00:49:13.591Z,1.73
2018-09-24T00:51:41.164Z,2.10
2018-09-24T00:54:08.921Z,2.00
2018-09-24T00:56:36.488Z,2.10
2018-09-24T00:59:04.072Z,2.30
2018-09-24T01:01:31.832Z,2.23
2018-09-24T01:03:59.345Z,2.13
2018-09-24T01:06:26.951Z,2.47
2018-09-24T01:08:54.629Z,2.77
2018-09-24T01:11:22.193Z,2.30
2018-09-24T01:13:49.942Z,2.83
2018-09-24T01:16:17.457Z,2.77
2018-09-24T01:18:45.036Z,2.87
2018-09-24T01:21:12.844Z,2.90
2018-09-24T01:23:40.422Z,2.93
2018-09-24T01:26:07.965Z,2.23
2018-09-24T01:28:35.847Z,2.70
2018-09-24T01:31:03.489Z,1.80
2018-09-24T01:33:31.044Z,1.70
2018-09-24T01:35:58.854Z,1.67
2018-09-24T01:38:26.409Z,1.70
2018-09-24T01:40:54.187Z,2.50
2018-09-24T01:43:21.760Z,1.63
2018-09-24T01:45:49.513Z,1.90
2018-09-24T01:48:17.389Z,1.40
2018-09-24T01:50:44.960Z,1.73
2018-09-24T01:53:12.500Z,2.20
2018-09-24T01:55:41.520Z,1.77
2018-09-24T01:58:09.112Z,1.50
2018-09-24T02:00:36.622Z,1.73
2018-09-24T02:03:04.419Z,1.50
2018-09-24T02:05:32.025Z,1.83
2018-09-24T02:07:59.606Z,1.40
2018-09-24T02:10:27.926Z,1.43
2018-09-24T02:12:56.581Z,1.50
2018-09-24T02:15:32.962Z,1.33
2018-09-24T02:18:01.060Z,1.20
2018-09-24T02:20:28.699Z,1.27
2018-09-24T02:22:56.808Z,1.23
2018-09-24T02:25:24.317Z,1.07
2018-09-24T02:27:51.869Z,1.30
2018-09-24T02:30:20.011Z,1.40
2018-09-24T02:32:47.523Z,1.10
2018-09-24T02:35:15.690Z,1.40
2018-09-24T02:37:43.269Z,1.30
2018-09-24T02:40:19.964Z,1.30
2018-09-24T02:42:47.872Z,1.37
2018-09-24T02:45:15.646Z,1.30
2018-09-24T02:47:50.978Z,1.47
2018-09-24T02:50:44.034Z,1.50
2018-09-24T02:53:17.373Z,1.20
2018-09-24T02:55:48.473Z,1.30
2018-09-24T02:58:31.728Z,1.20
2018-09-24T03:00:59.569Z,1.20
2018-09-24T03:03:27.169Z,1.60
2018-09-24T03:05:54.710Z,1.40
2018-09-24T03:08:22.466Z,1.13
2018-09-24T03:10:50.064Z,1.10
2018-09-24T03:13:17.633Z,1.10
2018-09-24T03:15:45.231Z,1.30
2018-09-24T03:18:13.086Z,1.37
2018-09-24T03:20:44.353Z,1.23
2018-09-24T03:23:11.911Z,1.33
2018-09-24T03:25:40.077Z,1.40
2018-09-24T03:28:07.656Z,1.80
2018-09-24T03:30:38.779Z,1.50
2018-09-24T03:33:06.722Z,1.47
2018-09-24T03:35:34.416Z,1.30
2018-09-24T03:38:02.363Z,1.40
2018-09-24T03:40:30.209Z,1.13
2018-09-24T03:42:58.263Z,1.10
2018-09-24T03:45:26.906Z,1.13
2018-09-24T03:47:54.430Z,1.17
2018-09-24T03:50:21.975Z,1.00
2018-09-24T03:52:49.674Z,0.97
2018-09-24T03:55:17.221Z,1.10
2018-09-24T03:57:44.768Z,1.17
2018-09-24T04:00:12.685Z,1.10
2018-09-24T04:02:40.543Z,1.13
2018-09-24T04:05:14.165Z,1.20
2018-09-24T04:07:47.505Z,1.00
2018-09-24T04:10:20.789Z,0.90
2018-09-24T04:12:54.260Z,0.80
2018-09-24T04:15:27.937Z,1.07
2018-09-24T04:18:01.282Z,1.10
2018-09-24T04:20:34.654Z,1.10
2018-09-24T04:23:08.108Z,1.00
2018-09-24T04:25:41.521Z,1.00
2018-09-24T04:28:15.499Z,0.93
2018-09-24T04:30:48.993Z,1.00
2018-09-24T04:33:22.773Z,0.80
2018-09-24T04:35:56.132Z,0.83
2018-09-24T04:38:29.453Z,0.90
2018-09-24T04:41:02.918Z,0.80
2018-09-24T04:43:36.364Z,1.00
2018-09-24T04:46:09.837Z,1.00
2018-09-24T04:48:43.497Z,0.80
2018-09-24T04:51:16.996Z,0.80
2018-09-24T04:53:50.492Z,0.63
2018-09-24T04:56:23.853Z,0.90
2018-09-24T04:58:57.490Z,0.90
2018-09-24T05:01:30.770Z,1.00
2018-09-24T05:04:04.615Z,1.10
2018-09-24T05:06:37.856Z,1.00
2018-09-24T05:09:13.244Z,1.20
2018-09-24T05:11:46.831Z,1.20
2018-09-24T05:14:20.317Z,0.87
2018-09-24T05:16:53.633Z,1.10
2018-09-24T05:19:27.204Z,0.90
2018-09-24T05:22:00.689Z,0.97
2018-09-24T05:24:35.444Z,0.90
2018-09-24T05:27:08.743Z,0.80
2018-09-24T05:29:42.441Z,0.90
2018-09-24T05:32:15.911Z,0.83
2018-09-24T05:34:49.545Z,0.80
2018-09-24T05:37:23.161Z,0.80
2018-09-24T05:39:56.365Z,0.80
2018-09-24T05:42:30.040Z,1.00
2018-09-24T05:45:03.485Z,0.80
2018-09-24T05:47:37.761Z,0.80
2018-09-24T05:50:11.237Z,0.90
2018-09-24T05:52:44.788Z,1.10
2018-09-24T05:55:18.125Z,0.90
2018-09-24T05:57:51.492Z,1.57
2018-09-24T06:00:25.213Z,1.30
2018-09-24T06:02:58.476Z,0.87
2018-09-24T06:05:32.266Z,0.90
2018-09-24T06:08:05.657Z,1.10
2018-09-24T06:10:38.960Z,0.80
2018-09-24T06:13:12.256Z,0.90
2018-09-24T06:15:46.025Z,0.90
2018-09-24T06:18:19.389Z,0.80
2018-09-24T06:20:52.820Z,0.90
2018-09-24T06:23:26.258Z,1.00
2018-09-24T06:26:00.012Z,0.70
2018-09-24T06:28:33.266Z,0.67
2018-09-24T06:31:06.753Z,0.70
2018-09-24T06:33:40.113Z,0.70
2018-09-24T06:36:13.785Z,0.70
2018-09-24T06:38:47.157Z,0.77
2018-09-24T06:41:20.861Z,0.60
2018-09-24T06:43:54.181Z,0.80
2018-09-24T06:46:27.975Z,0.50
2018-09-24T06:49:01.325Z,0.40
2018-09-24T06:51:34.780Z,0.40
2018-09-24T06:54:08.681Z,0.50
2018-09-24T06:56:42.152Z,0.70
2018-09-24T06:59:15.550Z,0.50
2018-09-24T07:01:49.132Z,0.70
2018-09-24T07:04:22.566Z,0.70
2018-09-24T07:06:56.222Z,0.53
2018-09-24T07:09:29.588Z,0.50
2018-09-24T07:12:03.285Z,0.60
2018-09-24T07:14:36.881Z,0.53
2018-09-24T07:17:10.485Z,0.50
2018-09-24T07:19:43.828Z,0.60
2018-09-24T07:22:17.424Z,0.47
2018-09-24T07:24:50.747Z,0.70
2018-09-24T07:27:24.225Z,0.57
2018-09-24T07:29:57.837Z,0.60
2018-09-24T07:32:31.262Z,0.50
2018-09-24T07:35:05.085Z,0.40
2018-09-24T07:37:38.474Z,0.70
2018-09-24T07:40:11.801Z,0.60
2018-09-24T07:42:45.081Z,0.60
2018-09-24T07:45:18.754Z,0.40
2018-09-24T07:47:52.191Z,0.50
2018-09-24T07:50:25.986Z,0.60
2018-09-24T07:52:59.844Z,0.63
2018-09-24T07:55:33.252Z,0.60
2018-09-24T07:58:06.737Z,0.67
2018-09-24T08:00:40.072Z,0.50
2018-09-24T08:03:13.568Z,0.60
2018-09-24T08:05:46.841Z,0.40
2018-09-24T08:08:22.030Z,0.50
2018-09-24T08:10:55.301Z,0.53
2018-09-24T08:13:28.860Z,0.60
2018-09-24T08:16:10.638Z,0.60
2018-09-24T08:18:44.089Z,0.60
2018-09-24T08:21:17.426Z,0.50
2018-09-24T08:23:50.608Z,0.50
2018-09-24T08:26:24.097Z,0.50
2018-09-24T08:28:57.362Z,0.63
2018-09-24T08:31:30.996Z,0.60
2018-09-24T08:34:04.401Z,0.60
2018-09-24T08:36:39.145Z,0.50
2018-09-24T08:39:12.876Z,0.60
2018-09-24T08:41:46.453Z,0.40
2018-09-24T08:44:19.862Z,0.50
2018-09-24T08:46:53.510Z,0.60
2018-09-24T08:49:26.944Z,0.50
2018-09-24T08:52:00.433Z,0.47
2018-09-24T08:54:35.609Z,0.53
2018-09-24T08:57:09.297Z,0.50
2018-09-24T08:59:42.661Z,0.53
2018-09-24T09:02:16.273Z,0.80
2018-09-24T09:04:49.534Z,0.47
2018-09-24T09:07:22.926Z,0.47
2018-09-24T09:09:56.283Z,0.67
2018-09-24T09:12:29.838Z,0.60
2018-09-24T09:15:03.205Z,0.47
2018-09-24T09:17:37.183Z,0.40
2018-09-24T09:20:10.568Z,0.40
2018-09-24T09:22:44.386Z,0.50
2018-09-24T09:25:17.725Z,0.50
2018-09-24T09:27:51.184Z,0.50
2018-09-24T09:30:24.693Z,0.60
2018-09-24T09:32:58.595Z,0.60
2018-09-24T09:35:31.945Z,0.60
2018-09-24T09:38:05.434Z,0.60
2018-09-24T09:40:38.799Z,0.50
2018-09-24T09:43:12.402Z,0.50
2018-09-24T09:45:45.770Z,0.57
2018-09-24T09:48:19.343Z,0.70
2018-09-24T09:50:52.536Z,0.57
2018-09-24T09:53:26.035Z,0.70
2018-09-24T09:56:00.202Z,0.60
2018-09-24T09:58:33.773Z,0.60
2018-09-24T10:01:07.602Z,0.87
2018-09-24T10:03:41.005Z,0.53
2018-09-24T10:06:14.612Z,0.67
2018-09-24T10:08:47.817Z,0.60
2018-09-24T10:11:21.616Z,0.50
2018-09-24T10:13:55.022Z,0.50
2018-09-24T10:16:28.561Z,0.50
2018-09-24T10:19:02.023Z,0.40
2018-09-24T10:21:36.016Z,0.67
2018-09-24T10:24:09.286Z,0.50
2018-09-24T10:26:42.860Z,0.47
2018-09-24T10:29:16.226Z,0.83
2018-09-24T10:31:50.120Z,0.60
2018-09-24T10:34:23.535Z,0.50
2018-09-24T10:36:57.137Z,0.83
2018-09-24T10:39:30.573Z,0.60
2018-09-24T10:42:04.002Z,0.53
2018-09-24T10:44:37.421Z,0.90
2018-09-24T10:47:11.035Z,0.50
2018-09-24T10:49:44.826Z,0.47
2018-09-24T10:52:18.552Z,0.33
2018-09-24T10:54:52.238Z,0.63
2018-09-24T10:57:25.547Z,0.43
2018-09-24T10:59:59.447Z,0.40
2018-09-24T11:02:32.828Z,0.60
2018-09-24T11:05:06.365Z,0.50
2018-09-24T11:07:39.844Z,0.60
2018-09-24T11:10:13.141Z,0.50
2018-09-24T11:12:46.848Z,0.50
2018-09-24T11:15:20.273Z,0.50
2018-09-24T11:17:54.173Z,0.40
2018-09-24T11:20:27.237Z,0.57
2018-09-24T11:23:00.732Z,0.60
2018-09-24T11:25:34.006Z,0.70
2018-09-24T11:28:07.541Z,0.60
2018-09-24T11:30:41.020Z,0.70
2018-09-24T11:33:14.459Z,0.40
2018-09-24T11:35:47.878Z,0.60
2018-09-24T11:38:21.420Z,0.60
2018-09-24T11:40:54.853Z,0.43
2018-09-24T11:43:28.851Z,0.63
2018-09-24T11:46:02.121Z,0.60
2018-09-24T11:48:35.544Z,0.37
2018-09-24T11:51:08.973Z,0.50
2018-09-24T11:53:43.282Z,0.50
2018-09-24T11:56:16.743Z,0.60
2018-09-24T11:58:50.365Z,0.53
2018-09-24T12:01:23.737Z,0.40
2018-09-24T12:03:57.855Z,0.73
2018-09-24T12:06:31.144Z,0.60
2018-09-24T12:09:04.681Z,0.50
2018-09-24T12:11:38.035Z,0.63
2018-09-24T12:14:11.574Z,0.53
2018-09-24T12:16:44.801Z,0.53
2018-09-24T12:19:18.327Z,0.50
2018-09-24T12:21:51.764Z,0.60
2018-09-24T12:24:25.090Z,0.70
2018-09-24T12:26:58.430Z,0.60
2018-09-24T12:29:31.784Z,0.60
2018-09-24T12:32:05.127Z,0.80
2018-09-24T12:34:38.604Z,0.73
2018-09-24T12:37:12.010Z,0.80
2018-09-24T12:39:45.520Z,0.60
2018-09-24T12:42:18.956Z,0.70
2018-09-24T12:44:53.420Z,0.70
2018-09-24T12:47:26.700Z,0.77
2018-09-24T12:50:00.168Z,0.50
2018-09-24T12:52:33.889Z,0.53
2018-09-24T12:55:08.202Z,0.77
2018-09-24T12:57:41.449Z,0.53
2018-09-24T13:00:14.885Z,0.57
2018-09-24T13:02:48.284Z,0.60
2018-09-24T13:05:21.851Z,0.70
2018-09-24T13:07:55.072Z,0.50
2018-09-24T13:10:28.629Z,0.67
2018-09-24T13:13:02.193Z,0.63
2018-09-24T13:15:35.478Z,0.40
2018-09-24T13:18:09.042Z,0.47
2018-09-24T13:20:42.393Z,0.57
2018-09-24T13:23:15.876Z,0.47
2018-09-24T13:25:49.156Z,0.50
2018-09-24T13:28:22.895Z,0.63
2018-09-24T13:30:56.289Z,0.57
2018-09-24T13:33:30.249Z,0.50
2018-09-24T13:36:03.471Z,0.60
2018-09-24T13:38:37.208Z,0.50
2018-09-24T13:41:10.621Z,0.50
2018-09-24T13:43:44.892Z,0.53
2018-09-24T13:46:18.244Z,0.60
2018-09-24T13:48:51.501Z,0.50
2018-09-24T13:51:24.876Z,0.43
2018-09-24T13:53:58.356Z,0.70
2018-09-24T13:56:32.493Z,0.50
2018-09-24T13:59:06.092Z,0.30
2018-09-24T14:01:39.438Z,0.53
2018-09-24T14:04:13.053Z,0.40
2018-09-24T14:06:46.435Z,0.40
2018-09-24T14:09:20.105Z,0.60
2018-09-24T14:11:53.560Z,0.50
2018-09-24T14:14:26.780Z,0.50
2018-09-24T14:17:00.133Z,0.40
2018-09-24T14:19:33.713Z,0.43
2018-09-24T14:22:06.959Z,0.50
2018-09-24T14:24:40.540Z,0.60
2018-09-24T14:27:13.935Z,0.50
2018-09-24T14:29:47.838Z,0.60
2018-09-24T14:32:21.200Z,0.63
2018-09-24T14:34:54.821Z,0.60
2018-09-24T14:37:28.138Z,0.50
2018-09-24T14:40:01.500Z,0.60
2018-09-24T14:42:35.214Z,0.60
2018-09-24T14:45:09.286Z,0.53
2018-09-24T14:47:42.528Z,0.70
2018-09-24T14:50:15.973Z,0.53
2018-09-24T14:52:49.473Z,0.57
2018-09-24T14:55:23.118Z,0.50
2018-09-24T14:57:57.109Z,0.80
2018-09-24T15:00:31.378Z,0.60
2018-09-24T15:03:04.629Z,0.80
2018-09-24T15:05:39.157Z,0.70
2018-09-24T15:08:13.807Z,0.50
2018-09-24T15:10:47.217Z,0.60
2018-09-24T15:13:20.712Z,0.60
2018-09-24T15:15:54.066Z,0.43
2018-09-24T15:18:27.758Z,0.50
2018-09-24T15:21:01.214Z,0.40
2018-09-24T15:23:34.493Z,0.30
2018-09-24T15:26:07.899Z,0.33
2018-09-24T15:28:41.475Z,0.37
2018-09-24T15:31:14.784Z,0.50
2018-09-24T15:33:48.236Z,0.47
2018-09-24T15:36:21.835Z,0.33
2018-09-24T15:38:55.471Z,0.67
2018-09-24T15:41:29.000Z,0.37
2018-09-24T15:44:03.002Z,0.40
2018-09-24T15:46:36.389Z,0.60
2018-09-24T15:49:10.112Z,0.70
2018-09-24T15:51:43.664Z,0.40
2018-09-24T15:54:17.169Z,0.40
2018-09-24T15:56:51.017Z,0.50
2018-09-24T15:59:24.524Z,0.50
2018-09-24T16:01:58.055Z,0.53
2018-09-24T16:04:31.516Z,0.47
2018-09-24T16:07:05.433Z,0.60
2018-09-24T16:09:38.856Z,0.40
2018-09-24T16:12:12.443Z,0.40
2018-09-24T16:14:45.922Z,0.43
2018-09-24T16:17:19.545Z,0.40
2018-09-24T16:19:53.341Z,0.60
2018-09-24T16:22:26.675Z,0.50
2018-09-24T16:25:00.201Z,0.60
2018-09-24T16:27:33.627Z,0.50
2018-09-24T16:30:07.542Z,0.40
2018-09-24T16:32:42.407Z,0.77
2018-09-24T16:35:15.992Z,0.50
2018-09-24T16:37:49.520Z,0.40
2018-09-24T16:40:23.076Z,0.50
2018-09-24T16:42:56.468Z,0.60
2018-09-24T16:45:30.286Z,0.43
2018-09-24T16:48:03.680Z,0.57
2018-09-24T16:50:37.544Z,0.40
2018-09-24T16:53:11.011Z,0.30
2018-09-24T16:55:44.617Z,0.60
2018-09-24T16:58:17.889Z,0.40
2018-09-24T17:00:51.320Z,0.40
2018-09-24T17:03:24.679Z,0.40
2018-09-24T17:05:58.409Z,0.40
2018-09-24T17:08:31.899Z,0.40
2018-09-24T17:11:05.496Z,0.33
2018-09-24T17:13:38.964Z,0.50
2018-09-24T17:16:12.656Z,0.40
2018-09-24T17:18:46.196Z,0.40
2018-09-24T17:21:22.977Z,0.40
2018-09-24T17:23:56.500Z,0.60
2018-09-24T17:26:30.280Z,0.50
2018-09-24T17:29:03.968Z,0.40
2018-09-24T17:31:37.532Z,0.57
2018-09-24T17:34:11.108Z,0.60
2018-09-24T17:36:44.808Z,0.30
2018-09-24T17:39:18.339Z,0.40
2018-09-24T17:41:51.892Z,0.60
2018-09-24T17:44:25.563Z,0.50
2018-09-24T17:46:59.152Z,0.50
2018-09-24T17:49:32.614Z,0.50
2018-09-24T17:52:06.207Z,0.60
2018-09-24T17:54:39.748Z,0.43
2018-09-24T17:57:14.027Z,0.47
2018-09-24T17:59:47.514Z,0.50
2018-09-24T18:02:21.234Z,0.57
2018-09-24T18:04:54.787Z,0.47
2018-09-24T18:07:28.439Z,0.80
2018-09-24T18:10:01.868Z,0.80
2018-09-24T18:12:35.544Z,0.53
2018-09-24T18:15:09.084Z,0.50
2018-09-24T18:17:42.932Z,0.60
2018-09-24T18:20:16.349Z,0.60
2018-09-24T18:22:49.860Z,0.50
2018-09-24T18:25:23.476Z,0.50
2018-09-24T18:27:57.044Z,0.57
2018-09-24T18:30:31.413Z,0.70
2018-09-24T18:33:04.975Z,0.60
2018-09-24T18:35:38.396Z,0.50
2018-09-24T18:38:12.107Z,0.50
2018-09-24T18:40:45.765Z,0.50
2018-09-24T18:43:19.292Z,0.40
2018-09-24T18:45:53.199Z,0.70
2018-09-24T18:48:26.850Z,0.50
2018-09-24T18:51:00.492Z,1.20
2018-09-24T18:53:33.934Z,0.50
2018-09-24T18:56:07.669Z,0.50
2018-09-24T18:58:41.085Z,0.50
2018-09-24T19:01:14.915Z,0.50
2018-09-24T19:03:48.296Z,0.33
2018-09-24T19:06:21.935Z,0.47
2018-09-24T19:08:55.569Z,0.53
2018-09-24T19:11:29.048Z,0.40
2018-09-24T19:14:13.100Z,0.60
2018-09-24T19:16:46.539Z,0.43
2018-09-24T19:19:24.336Z,0.40
2018-09-24T19:21:57.656Z,0.50
2018-09-24T19:24:31.090Z,0.60
2018-09-24T19:27:04.484Z,0.40
2018-09-24T19:29:37.968Z,0.47
2018-09-24T19:32:11.679Z,0.57
2018-09-24T19:34:45.576Z,0.40
2018-09-24T19:37:19.160Z,0.50
2018-09-24T19:39:52.898Z,0.53
2018-09-24T19:42:27.302Z,0.50
2018-09-24T19:45:00.852Z,0.60
2018-09-24T19:47:34.213Z,0.53
2018-09-24T19:50:08.191Z,0.50
2018-09-24T19:52:41.788Z,0.40
2018-09-24T19:55:15.364Z,0.40
2018-09-24T19:57:48.716Z,0.57
2018-09-24T20:00:22.109Z,0.40
2018-09-24T20:02:55.489Z,0.53
2018-09-24T20:05:28.818Z,0.70
2018-09-24T20:08:02.294Z,0.50
2018-09-24T20:10:36.326Z,0.50
2018-09-24T20:13:16.774Z,0.57
2018-09-24T20:15:50.368Z,0.40
2018-09-24T20:18:23.764Z,0.60
2018-09-24T20:20:57.751Z,0.40
2018-09-24T20:23:31.309Z,0.77
2018-09-24T20:26:04.854Z,0.60
2018-09-24T20:28:38.440Z,0.60
2018-09-24T20:31:12.263Z,0.40
2018-09-24T20:33:46.058Z,0.80
2018-09-24T20:36:19.775Z,0.57
2018-09-24T20:38:53.271Z,0.60
2018-09-24T20:41:26.762Z,0.60
2018-09-24T20:44:00.204Z,0.50
2018-09-24T20:46:33.589Z,0.50
2018-09-24T20:49:07.223Z,0.50
2018-09-24T20:51:40.834Z,0.50
2018-09-24T20:54:14.512Z,0.70
2018-09-24T20:56:48.348Z,0.53
2018-09-24T20:59:21.812Z,0.40
2018-09-24T21:01:55.306Z,0.50
2018-09-24T21:04:28.916Z,0.60
2018-09-24T21:07:02.448Z,0.50
2018-09-24T21:09:35.868Z,0.57
2018-09-24T21:12:09.837Z,0.50
2018-09-24T21:14:43.598Z,0.73
2018-09-24T21:17:17.007Z,0.50
2018-09-24T21:19:50.660Z,0.50
2018-09-24T21:22:24.060Z,0.60
2018-09-24T21:24:58.129Z,0.60
2018-09-24T21:27:31.548Z,0.50
2018-09-24T21:30:05.268Z,0.60
2018-09-24T21:32:39.617Z,0.60
2018-09-24T21:35:13.384Z,0.60
2018-09-24T21:37:46.916Z,0.57
2018-09-24T21:40:20.399Z,0.60
2018-09-24T21:42:53.754Z,0.50
2018-09-24T21:45:27.106Z,0.63
2018-09-24T21:48:00.669Z,0.60
2018-09-24T21:50:34.164Z,0.50
2018-09-24T21:53:07.701Z,0.57
2018-09-24T21:55:41.296Z,0.50
2018-09-24T21:58:14.681Z,0.70
2018-09-24T22:00:48.536Z,0.90
2018-09-24T22:03:22.028Z,0.53
2018-09-24T22:05:55.678Z,0.50
2018-09-24T22:08:29.233Z,0.50
2018-09-24T22:11:02.747Z,0.60
2018-09-24T22:13:36.215Z,0.50
2018-09-24T22:16:09.820Z,0.40
2018-09-24T22:18:43.192Z,0.43
2018-09-24T22:21:17.039Z,0.60
2018-09-24T22:23:50.395Z,0.50
2018-09-24T22:26:24.140Z,0.60
2018-09-24T22:28:57.528Z,0.50
2018-09-24T22:31:31.117Z,0.47
2018-09-24T22:34:04.655Z,0.50
2018-09-24T22:36:38.404Z,1.30
2018-09-24T22:39:13.500Z,0.70
2018-09-24T22:41:47.280Z,0.43
2018-09-24T22:44:21.079Z,0.50
2018-09-24T22:46:54.474Z,0.80
2018-09-24T22:49:28.086Z,0.50
2018-09-24T22:52:01.561Z,0.83
2018-09-24T22:54:35.506Z,0.60
2018-09-24T22:57:08.757Z,0.77
2018-09-24T22:59:42.946Z,0.40
2018-09-24T23:02:16.386Z,0.57
2018-09-24T23:04:49.880Z,0.60
2018-09-24T23:07:23.274Z,0.50
2018-09-24T23:09:56.752Z,0.60
2018-09-24T23:12:30.104Z,0.80
2018-09-24T23:15:03.472Z,0.70
2018-09-24T23:17:36.768Z,0.50
2018-09-24T23:20:10.484Z,0.53
2018-09-24T23:22:43.810Z,0.60
2018-09-24T23:25:17.587Z,0.60
2018-09-24T23:27:51.100Z,0.60
2018-09-24T23:30:24.564Z,0.70
2018-09-24T23:32:58.299Z,0.73
2018-09-24T23:35:31.699Z,0.63
2018-09-24T23:38:05.498Z,0.60
2018-09-24T23:40:38.888Z,0.60
2018-09-24T23:43:12.501Z,0.40
2018-09-24T23:45:45.788Z,0.50
2018-09-24T23:48:19.207Z,0.70
2018-09-24T23:50:52.708Z,0.63
2018-09-24T23:53:26.516Z,0.57
2018-09-24T23:55:59.767Z,0.70
2018-09-24T23:58:33.215Z,0.70
